NCAR-RAP Real-Time Weather Data

Output produced by METARs form (17 September 2019  16:28 UTC)
found at http://weather.rap.ucar.edu/surface/
 
KMSO 171553Z 32007KT 10SM SCT060 OVC075 11/07 A2993 RMK AO2 RAE16 SLP129 P0000 T01110072
KMSO 171453Z 32007KT 10SM -RA OVC055 11/07 A2992 RMK AO2 RAB05E09B30 SLP124 P0000 60004 T01060072 51026
KMSO 171353Z 31011KT 10SM OVC055 11/07 A2990 RMK AO2 RAE52 SLP113 P0001 T01110072
KMSO 171253Z 34005KT 8SM -RA FEW039 BKN049 OVC060 12/08 A2987 RMK AO2 RAB15 SLP103 P0003 T01170083
KMSO 171153Z AUTO 32010G17KT 10SM OVC040 14/06 A2984 RMK AO2 SLP087 T01390061 10156 20133 51009
KMSO 171053Z AUTO 32010KT 10SM BKN047 OVC085 14/06 A2983 RMK AO2 SLP084 T01390061
KMSO 170953Z AUTO 32010KT 10SM SCT070 OVC100 14/07 A2982 RMK AO2 SLP078 T01390067
KMSO 170853Z AUTO 33006KT 10SM BKN065 14/07 A2981 RMK AO2 SLP077 T01390067 51011
KMSO 170753Z AUTO 32007KT 10SM CLR 13/07 A2981 RMK AO2 SLP080 T01330067
KMSO 170653Z AUTO 33012G22KT 10SM CLR 16/07 A2979 RMK AO2 SLP073 T01560067 402560100
KMSO 170553Z AUTO 33009KT 10SM CLR 16/06 A2977 RMK AO2 SLP070 T01560061 10233 20144 53014
KMSO 170453Z AUTO 28013KT 10SM CLR 16/06 A2975 RMK AO2 SLP063 T01610056
KMSO 170353Z 33009KT 10SM CLR 18/04 A2975 RMK AO2 SLP061 T01780044
KMSO 170253Z 32009KT 10SM CLR 19/04 A2973 RMK AO2 SLP054 T01890039 51020
KMSO 170053Z 01016G20KT 10SM FEW110 22/08 A2970 RMK AO2 SLP044 T02170078
KMSO 162353Z 01014KT 10SM CLR 23/08 A2966 RMK AO2 SLP030 T02330078 10256 20167 55003
KMSO 162253Z 01013KT 10SM CLR 24/07 A2964 RMK AO2 SLP020 T02440072
KMSO 162153Z 30011KT 10SM CLR 26/06 A2965 RMK AO2 SLP021 T02560056